Terminal Aerodrome Forecast
Issued by NWS

Home | Current Version | Previous Version | Text Only | Print | Product List | Glossary On
Versions: 1 2 3 4 5 6 7 8 9 10 11 12 13 14 15 16 17 18 19 20 21 22 23
000
FTUS46 KPDT 191700
TAFPSC
TAF
KPSC 191740Z 1918/2018 18005KT P6SM SCT070 OVC100
     FM191900 21010KT P6SM SCT090 BKN100
     FM192200 22004KT P6SM SCT080 BKN250
     FM201100 16004KT 6SM -RA BR BKN040 OVC050=

USA.gov is the U.S. government's official web portal to all federal, state and local government web resources and services.